الصفحة الرئيسية
METAR-TAF:

METAR-TAF

مطار :

Kugaaruk, نونافوت, كندا

دائرة عرض: 68-32N, خط طول: 089-49W, ارتفاع: 15 متر

مراقبة الطقس الحالي

تاريخ ووقت الإصدار 12ساعات و 41 دقيقة قبل الساعة 23:00UTC
ريح 14 عقدة من الغرب
درجة الحرارة 0°درجة مئوية
الرطوبة 74%
ضغط 1018 hPa
الرؤية: 24.1 كم
غيوم قليلة على ارتفاع 24000 قدم

METAR: CYBB 262300Z 28014KT 15SM FEW240 M00/M04 A3006 RMK CI1 SLP182

زمن: 05:41 (11:41 UTC)

توقعات

تاريخ ووقت الإصدار 17ساعات و 1 دقيقة قبل الساعة 18:40UTC
التوقعات صالحة من26 الساعة 19 UTC إلى 26 الساعة 24 UTC
ريح 15 عقدة من الشمال/الشمال الغربي
الرؤية: 10 كم
غيوم قليلة على ارتفاع 2000 قدم
مؤقت
من 26 الساعة 19 UTC إلى 26 الساعة 24 UTC
غيوم مفككة على ارتفاع 1500 قدم

TAF: CYBB 261840Z 2619/2624 33015KT P6SM FEW020 TEMPO 2619/2624 BKN015 RMK NXT FCST BY 271400Z

أرصاد الطقس والتوقعات من أكثر من 4000 مطار (تقارير الطقس للمطار METAR والتنبؤ بالطقس بالمطارTAF).

المحطات المتاحة هي النقط الصفراء والحمراء على الخريطة.

حرك المؤشر فوق النقطة لمعرفة اسم المحطة.

ثم انقر لمعرفة أرصاد وتوقعات الطقس.

لتغيير الخارطة: اضغط على الأزرار الخضراء مع رمز الصليب الأسود للتكبير. على الزر الأخضر مع شرطة للتصغير، أو على الأسهم الخضراء للخرائط المجاورة.


METAR-TAF: